Terminal Aerodrome Forecast
Issued by NWS

Home | Current Version | Previous Version | Text Only | Print | Product List | Glossary On
Versions: 1 2 3 4 5 6 7 8 9 10 11 12 13 14 15 16 17 18 19 20 21 22 23 24 25 26 27 28 29 30 31 32 33 34 35 36 37 38 39 40 41 42 43 44 45 46 47 48 49 50
904
FTUS43 KLOT 260307 AAA
TAFGYY
TAF AMD
KGYY 260307Z 2603/2624 28012KT P6SM BKN250
     FM260400 27008KT P6SM SCT150
     FM261000 21007KT P6SM BKN090
     FM261400 20016G24KT P6SM BKN060
     FM262000 23022G36KT P6SM FEW060=

USA.gov is the U.S. government's official web portal to all federal, state and local government web resources and services.